Time;durP1;ratioP1;P1;durP2;ratioP2;P2;SDS_P1;SDS_P2;PMS_P1;PMS_P2;Temp;Humidity;BMP_temperature;BMP_pressure;BME280_temperature;BME280_humidity;BME280_pressure;Samples;Min_cycle;Max_cycle;Signal;HPM_P1;HPM_P2
2022/12/15 00:39:58;;;;;;;1.30;0.90;;;-4.20;99.90;;;;;;5096634;28;20056;-84
2022/12/15 00:42:25;;;;;;;1.48;0.47;;;-4.10;99.90;;;;;;5096563;28;20052;-84
2022/12/15 00:44:51;;;;;;;0.10;0.10;;;-4.10;99.90;;;;;;5096714;28;20051;-83
2022/12/15 00:47:16;;;;;;;0.17;0.17;;;-4.10;99.90;;;;;;5062433;28;20052;-83
2022/12/15 01:20:17;;;;;;;0.43;0.43;;;-4.20;99.90;;;;;;5064914;28;20052;-83
2022/12/15 01:23:03;;;;;;;0.40;0.40;;;-4.30;99.90;;;;;;5070012;28;20039;-83
2022/12/15 01:25:29;;;;;;;0.98;0.55;;;-4.20;99.90;;;;;;5081331;28;20052;-83
2022/12/15 01:27:54;;;;;;;0.47;0.47;;;-4.30;99.90;;;;;;5065937;28;20473;-83
2022/12/15 01:30:22;;;;;;;0.47;0.35;;;-4.30;99.90;;;;;;5083062;28;20039;-83
2022/12/15 01:32:48;;;;;;;0.00;0.00;;;-4.00;99.90;;;;;;5081694;28;20472;-83
2022/12/15 01:35:15;;;;;;;0.65;0.55;;;-4.20;99.90;;;;;;5081759;28;20047;-82
2022/12/15 01:37:42;;;;;;;0.35;0.35;;;-4.30;99.90;;;;;;5065638;28;20395;-83
2022/12/15 01:42:58;;;;;;;0.38;0.25;;;-4.20;99.90;;;;;;5098537;28;20073;-83
2022/12/15 01:45:44;;;;;;;0.55;0.28;;;-4.20;99.90;;;;;;5098129;28;20048;-83
2022/12/15 01:48:15;;;;;;;0.38;0.38;;;-4.20;99.90;;;;;;5080685;28;20051;-83
2022/12/15 01:51:11;;;;;;;0.35;0.35;;;-4.20;99.90;;;;;;5098747;28;20479;-83
2022/12/15 01:53:52;;;;;;;0.85;0.77;;;-4.20;99.90;;;;;;5081193;28;20494;-83
2022/12/15 01:56:19;;;;;;;0.17;0.17;;;-4.20;99.90;;;;;;5081399;28;20048;-83
2022/12/15 01:58:48;;;;;;;1.33;0.98;;;-4.20;99.90;;;;;;5048162;28;20090;-83
2022/12/15 02:01:13;;;;;;;0.05;0.05;;;-4.10;99.90;;;;;;5098631;28;20039;-83
2022/12/15 02:03:43;;;;;;;2.10;1.45;;;-4.20;99.90;;;;;;5097854;28;20043;-83
2022/12/15 02:06:10;;;;;;;0.10;0.10;;;-4.10;99.90;;;;;;5081511;28;20043;-83
2022/12/15 02:08:36;;;;;;;0.00;0.00;;;-4.20;99.90;;;;;;5098240;28;20043;-83
2022/12/15 02:11:09;;;;;;;0.00;0.00;;;-4.20;99.90;;;;;;5081366;28;20051;-83
2022/12/15 02:13:52;;;;;;;0.57;0.47;;;-4.20;99.90;;;;;;5081941;28;20083;-83
2022/12/15 02:16:47;;;;;;;0.52;0.35;;;-4.10;99.90;;;;;;5082042;28;20047;-83
2022/12/15 02:19:38;;;;;;;0.00;0.00;;;-4.10;99.90;;;;;;5091203;28;20051;-83
2022/12/15 02:22:23;;;;;;;0.08;0.08;;;-4.10;99.90;;;;;;5114987;28;20040;-82
2022/12/15 02:25:21;;;;;;;0.00;0.00;;;-4.10;99.90;;;;;;5083623;28;20036;-83
2022/12/15 02:28:36;;;;;;;0.00;0.00;;;-4.10;99.90;;;;;;5080493;28;20105;-83
2022/12/15 02:34:04;;;;;;;0.63;0.63;;;-4.20;99.90;;;;;;5097400;28;20134;-83
2022/12/15 02:36:36;;;;;;;2.28;0.68;;;-4.20;99.90;;;;;;5097250;28;20051;-82
2022/12/15 02:39:04;;;;;;;0.45;0.45;;;-4.10;99.90;;;;;;5097433;28;20368;-83
2022/12/15 02:41:38;;;;;;;3.72;0.35;;;-4.20;99.90;;;;;;5097393;28;20048;-83
2022/12/15 02:44:18;;;;;;;0.93;0.93;;;-4.20;99.90;;;;;;5080021;28;20079;-83
2022/12/15 02:46:58;;;;;;;0.32;0.32;;;-4.20;99.90;;;;;;5096869;28;20127;-82
2022/12/15 02:49:48;;;;;;;0.60;0.60;;;-4.20;99.90;;;;;;5096479;28;20096;-83
2022/12/15 02:52:35;;;;;;;0.00;0.00;;;-4.10;99.90;;;;;;5097407;28;20048;-83
2022/12/15 02:55:12;;;;;;;0.50;0.50;;;-4.10;99.90;;;;;;5096890;28;20058;-83
2022/12/15 02:58:11;;;;;;;0.20;0.20;;;-4.10;99.90;;;;;;5080099;28;20054;-83
2022/12/15 03:00:43;;;;;;;0.20;0.20;;;-4.10;99.90;;;;;;5080177;28;20039;-83
2022/12/15 03:03:12;;;;;;;0.00;0.00;;;-4.00;99.90;;;;;;5097371;28;20043;-83
2022/12/15 03:05:38;;;;;;;0.40;0.40;;;-4.10;99.90;;;;;;5096551;28;20039;-83
2022/12/15 03:08:08;;;;;;;0.70;0.63;;;-4.00;99.90;;;;;;5079915;28;20050;-83
2022/12/15 03:10:33;;;;;;;0.00;0.00;;;-4.00;99.90;;;;;;5063686;28;20054;-83
2022/12/15 03:12:59;;;;;;;0.80;0.65;;;-4.00;99.90;;;;;;5079926;28;20043;-83
2022/12/15 03:15:25;;;;;;;0.60;0.00;;;-4.00;99.90;;;;;;5079478;28;20054;-83
2022/12/15 03:17:51;;;;;;;0.00;0.00;;;-4.00;99.90;;;;;;5079392;28;20100;-83
2022/12/15 03:20:17;;;;;;;0.00;0.00;;;-4.00;99.90;;;;;;5096620;28;20435;-83
2022/12/15 03:22:43;;;;;;;0.00;0.00;;;-4.00;99.90;;;;;;5063514;28;20090;-83
2022/12/15 03:25:09;;;;;;;0.60;0.60;;;-3.60;99.90;;;;;;5062989;28;20036;-83
2022/12/15 03:27:34;;;;;;;0.00;0.00;;;-4.10;99.90;;;;;;5096415;28;20059;-83
2022/12/15 03:30:00;;;;;;;0.13;0.13;;;-4.10;99.90;;;;;;5079660;28;20105;-83
2022/12/15 03:32:27;;;;;;;0.63;0.55;;;-4.10;99.90;;;;;;5096636;28;20138;-83
2022/12/15 03:34:55;;;;;;;1.65;0.63;;;-4.00;99.90;;;;;;5079857;28;20039;-83
2022/12/15 03:37:20;;;;;;;0.32;0.10;;;-4.00;99.90;;;;;;5080177;28;20075;-83
2022/12/15 03:39:46;;;;;;;0.85;0.40;;;-4.00;99.90;;;;;;5096601;28;20131;-83
2022/12/15 03:42:12;;;;;;;0.00;0.00;;;-4.10;99.90;;;;;;5080102;28;20043;-83
2022/12/15 03:44:38;;;;;;;0.00;0.00;;;-4.00;99.90;;;;;;5062667;28;20044;-83
2022/12/15 03:47:04;;;;;;;0.50;0.50;;;-4.00;99.90;;;;;;5079900;28;20083;-83
2022/12/15 03:49:30;;;;;;;7.97;0.70;;;-4.10;99.90;;;;;;5045799;28;20047;-83
2022/12/15 03:51:56;;;;;;;0.10;0.10;;;-4.10;99.90;;;;;;5079580;28;20048;-83
2022/12/15 03:54:21;;;;;;;0.00;0.00;;;-4.00;99.90;;;;;;5096862;28;20131;-83
2022/12/15 03:56:49;;;;;;;0.00;0.00;;;-4.00;99.90;;;;;;5064390;28;20047;-83
2022/12/15 03:59:15;;;;;;;0.10;0.10;;;-4.00;99.90;;;;;;5083744;28;20138;-83
2022/12/15 04:01:46;;;;;;;0.43;0.43;;;-4.00;99.90;;;;;;5083558;28;20134;-83
2022/12/15 04:04:12;;;;;;;0.00;0.00;;;-4.00;99.90;;;;;;5083597;28;20039;-83
2022/12/15 04:06:38;;;;;;;0.00;0.00;;;-4.00;99.90;;;;;;5083363;28;20105;-83
2022/12/15 04:09:03;;;;;;;0.13;0.13;;;-4.00;99.90;;;;;;5066798;28;20046;-83
2022/12/15 04:11:29;;;;;;;1.27;0.85;;;-4.00;99.90;;;;;;5083651;28;20441;-83
2022/12/15 04:13:55;;;;;;;0.93;0.80;;;-4.00;99.90;;;;;;5100129;28;20051;-83
2022/12/15 04:16:20;;;;;;;0.52;0.52;;;-4.00;99.90;;;;;;5083019;28;20458;-83
2022/12/15 04:20:07;;;;;;;0.10;0.10;;;-4.00;99.90;;;;;;5082504;28;20107;-83
2022/12/15 04:21:32;;;;;;;0.05;0.05;;;-4.00;99.90;;;;;;5100273;28;20077;-83
2022/12/15 05:32:24;;;;;;;0.00;0.00;;;-4.00;99.90;;;;;;5095658;28;20062;-83
2022/12/15 05:34:50;;;;;;;0.55;0.55;;;-4.00;99.90;;;;;;5078483;28;20130;-83
2022/12/15 05:37:16;;;;;;;0.63;0.63;;;-4.00;99.90;;;;;;5095292;28;20048;-83
2022/12/15 05:39:41;;;;;;;1.35;0.75;;;-4.00;99.90;;;;;;5078680;28;20383;-83
2022/12/15 05:42:10;;;;;;;0.90;0.90;;;-4.00;99.90;;;;;;5095292;28;20036;-83
2022/12/15 05:44:36;;;;;;;0.00;0.00;;;-4.00;99.90;;;;;;5061658;28;20094;-83
2022/12/15 05:47:03;;;;;;;0.43;0.43;;;-4.00;99.90;;;;;;5078402;28;20443;-84
2022/12/15 05:49:29;;;;;;;0.00;0.00;;;-4.00;99.90;;;;;;5077670;28;20052;-83
2022/12/15 05:51:56;;;;;;;0.00;0.00;;;-4.00;99.90;;;;;;5095099;28;20547;-83
2022/12/15 05:54:22;;;;;;;0.00;0.00;;;-4.00;99.90;;;;;;5078171;28;20601;-83
2022/12/15 05:56:47;;;;;;;0.00;0.00;;;-4.00;99.90;;;;;;5095347;28;20048;-83
2022/12/15 05:59:14;;;;;;;0.00;0.00;;;-4.00;99.90;;;;;;5061394;28;20047;-83
2022/12/15 06:01:40;;;;;;;0.52;0.35;;;-3.90;99.90;;;;;;5078148;28;20044;-83
2022/12/15 06:04:06;;;;;;;0.00;0.00;;;-4.00;99.90;;;;;;5094711;28;20044;-83
2022/12/15 06:06:35;;;;;;;0.10;0.10;;;-4.00;99.90;;;;;;5077653;28;20055;-83
2022/12/15 06:09:02;;;;;;;0.25;0.25;;;-3.80;99.90;;;;;;5078553;28;20076;-82
2022/12/15 06:11:28;;;;;;;0.00;0.00;;;-4.00;99.90;;;;;;5060867;28;20044;-83
2022/12/15 06:13:54;;;;;;;0.70;0.43;;;-4.00;99.90;;;;;;5045149;28;20044;-83
2022/12/15 06:16:22;;;;;;;0.08;0.08;;;-4.00;99.90;;;;;;5077754;28;20052;-83
2022/12/15 06:18:50;;;;;;;0.00;0.00;;;-4.00;99.90;;;;;;5076854;28;20048;-83
2022/12/15 06:21:22;;;;;;;0.38;0.38;;;-4.00;99.90;;;;;;5094672;28;20043;-83
2022/12/15 06:23:49;;;;;;;0.00;0.00;;;-4.00;99.90;;;;;;5077167;28;20553;-83
2022/12/15 06:26:19;;;;;;;0.57;0.57;;;-4.00;99.90;;;;;;5081265;28;20135;-83
2022/12/15 06:28:46;;;;;;;0.43;0.10;;;-4.00;99.90;;;;;;5081054;28;20051;-83
2022/12/15 06:31:12;;;;;;;0.08;0.08;;;-4.00;99.90;;;;;;5081009;28;20082;-83
2022/12/15 06:33:38;;;;;;;0.00;0.00;;;-4.00;99.90;;;;;;5080668;28;20051;-83
2022/12/15 06:36:06;;;;;;;2.03;0.15;;;-4.00;99.90;;;;;;5097502;28;20392;-83
2022/12/15 06:38:33;;;;;;;0.10;0.10;;;-4.00;99.90;;;;;;5080660;28;20043;-83
2022/12/15 06:40:59;;;;;;;0.08;0.08;;;-4.00;99.90;;;;;;5097479;28;20043;-83
2022/12/15 06:43:27;;;;;;;1.95;0.75;;;-3.90;99.90;;;;;;5097435;28;20051;-83
2022/12/15 06:45:52;;;;;;;0.00;0.00;;;-3.90;99.90;;;;;;5064219;28;20043;-83
2022/12/15 06:48:19;;;;;;;0.00;0.00;;;-3.90;99.90;;;;;;5079879;28;20514;-83
2022/12/15 06:50:45;;;;;;;0.43;0.38;;;-3.90;99.90;;;;;;5080705;28;20059;-82
2022/12/15 06:53:16;;;;;;;1.08;1.00;;;-3.90;99.90;;;;;;5064206;28;20192;-83
2022/12/15 06:55:43;;;;;;;0.13;0.13;;;-3.90;99.90;;;;;;5081454;28;20048;-83
2022/12/15 06:58:12;;;;;;;0.10;0.10;;;-3.90;99.90;;;;;;5081991;28;20044;-82
2022/12/15 07:00:40;;;;;;;0.15;0.15;;;-3.90;99.90;;;;;;5099366;28;20100;-83
2022/12/15 07:03:14;;;;;;;0.00;0.00;;;-3.90;99.90;;;;;;5097177;28;20055;-83
2022/12/15 07:05:41;;;;;;;3.10;0.63;;;-3.90;99.90;;;;;;5096449;28;20044;-83
2022/12/15 07:08:12;;;;;;;0.10;0.10;;;-3.80;99.90;;;;;;5097077;28;20036;-82
2022/12/15 07:10:39;;;;;;;0.00;0.00;;;-3.80;99.90;;;;;;5080248;28;20048;-83
2022/12/15 07:13:05;;;;;;;0.55;0.55;;;-3.80;99.90;;;;;;5080011;28;20057;-83
2022/12/15 07:15:31;;;;;;;11.70;0.70;;;-3.90;99.90;;;;;;5063293;28;20047;-83
2022/12/15 07:17:57;;;;;;;0.47;0.47;;;-3.80;99.90;;;;;;5079040;28;20043;-83
2022/12/15 07:20:23;;;;;;;0.00;0.00;;;-3.80;99.90;;;;;;5080093;28;20105;-83
2022/12/15 07:22:52;;;;;;;0.70;0.60;;;-3.90;99.90;;;;;;5080025;28;20083;-83
2022/12/15 07:25:19;;;;;;;0.00;0.00;;;-3.90;99.90;;;;;;5079617;28;20082;-84
2022/12/15 07:27:46;;;;;;;3.05;1.08;;;-3.80;99.90;;;;;;5096462;28;20060;-84
2022/12/15 07:30:17;;;;;;;0.00;0.00;;;-3.80;99.90;;;;;;5096466;28;20051;-86
2022/12/15 07:32:43;;;;;;;0.15;0.15;;;-3.80;99.90;;;;;;5080087;28;20141;-86
2022/12/15 07:37:55;;;;;;;0.50;0.50;;;-3.80;99.90;;;;;;5097006;28;20100;-85
2022/12/15 07:40:21;;;;;;;0.03;0.03;;;-3.70;99.90;;;;;;5096874;28;20130;-86
2022/12/15 07:42:49;;;;;;;0.10;0.10;;;-3.40;99.90;;;;;;5080242;28;20052;-86
2022/12/15 07:45:15;;;;;;;0.00;0.00;;;-3.70;99.90;;;;;;5079688;28;20089;-85
2022/12/15 07:47:43;;;;;;;0.00;0.00;;;-3.70;99.90;;;;;;5080104;28;20074;-85
2022/12/15 07:50:09;;;;;;;0.00;0.00;;;-3.70;99.90;;;;;;5080329;28;20040;-86
2022/12/15 07:52:35;;;;;;;0.00;0.00;;;-3.60;99.90;;;;;;5080125;28;20052;-85
2022/12/15 07:55:03;;;;;;;0.00;0.00;;;-3.50;99.90;;;;;;5079670;28;20036;-86
2022/12/15 07:57:29;;;;;;;0.30;0.30;;;-3.50;99.90;;;;;;5096676;28;20075;-86
2022/12/15 07:59:55;;;;;;;0.20;0.20;;;-3.00;99.90;;;;;;5080205;28;20491;-86
2022/12/15 08:02:21;;;;;;;0.60;0.60;;;-3.40;99.90;;;;;;5080535;28;20483;-86
2022/12/15 08:04:50;;;;;;;0.68;0.68;;;-3.20;99.90;;;;;;5080041;28;20036;-86
2022/12/15 08:07:16;;;;;;;0.55;0.20;;;-3.30;99.90;;;;;;5096535;28;20517;-85
2022/12/15 08:09:46;;;;;;;0.63;0.25;;;-3.30;99.90;;;;;;5081336;28;20051;-86
2022/12/15 08:12:12;;;;;;;0.30;0.30;;;-2.70;99.90;;;;;;5080875;28;20479;-84
2022/12/15 08:14:37;;;;;;;0.20;0.20;;;-3.10;99.90;;;;;;5079031;28;20040;-84
2022/12/15 08:17:04;;;;;;;1.02;0.40;;;-2.90;99.90;;;;;;5078590;28;20047;-84
2022/12/15 08:19:30;;;;;;;0.00;0.00;;;-2.80;99.90;;;;;;5095339;28;20048;-84
2022/12/15 08:21:55;;;;;;;0.00;0.00;;;-2.60;99.90;;;;;;5096023;28;20046;-84
2022/12/15 08:24:21;;;;;;;0.25;0.25;;;-2.70;99.90;;;;;;5078638;28;20032;-84
2022/12/15 08:26:47;;;;;;;0.52;0.52;;;-2.60;99.90;;;;;;5079159;28;20104;-84
2022/12/15 08:29:13;;;;;;;1.20;0.93;;;-2.40;99.90;;;;;;5063112;28;20047;-84
2022/12/15 08:31:40;;;;;;;0.77;0.57;;;-2.40;99.90;;;;;;5079192;28;20073;-84
2022/12/15 08:34:06;;;;;;;1.45;0.90;;;-2.30;99.90;;;;;;5096205;28;20043;-85
2022/12/15 08:36:32;;;;;;;0.22;0.20;;;-2.30;99.90;;;;;;5096370;28;20545;-84
2022/12/15 08:39:02;;;;;;;0.20;0.05;;;-2.20;99.90;;;;;;5076938;28;20047;-88
2022/12/15 08:41:30;;;;;;;0.50;0.47;;;-2.10;99.90;;;;;;5093268;28;20096;-84
2022/12/15 08:43:58;;;;;;;0.00;0.00;;;-2.10;99.90;;;;;;5095497;28;20043;-86
2022/12/15 08:46:26;;;;;;;1.75;0.30;;;-2.00;99.90;;;;;;5097690;28;20047;-85
2022/12/15 08:48:53;;;;;;;0.17;0.17;;;-1.60;99.90;;;;;;5096589;28;20035;-84
2022/12/15 08:51:20;;;;;;;0.00;0.00;;;-1.20;99.90;;;;;;5097202;28;20118;-86
2022/12/15 08:53:49;;;;;;;0.08;0.08;;;-1.00;99.90;;;;;;5080023;28;20044;-86
2022/12/15 08:56:17;;;;;;;0.25;0.25;;;-0.90;99.90;;;;;;5090707;28;20046;-84
2022/12/15 08:58:44;;;;;;;1.38;0.63;;;0.00;99.90;;;;;;5095378;28;20047;-82
2022/12/15 09:01:13;;;;;;;0.05;0.05;;;1.00;99.90;;;;;;5081956;28;20084;-83
2022/12/15 09:03:39;;;;;;;1.30;0.60;;;0.90;99.90;;;;;;5077857;28;20391;-82
2022/12/15 09:06:07;;;;;;;0.90;0.38;;;1.00;99.90;;;;;;5080254;28;20516;-83
2022/12/15 09:08:33;;;;;;;0.00;0.00;;;0.90;99.90;;;;;;5096322;28;20036;-83
2022/12/15 09:11:00;;;;;;;0.20;0.20;;;0.70;99.90;;;;;;5097934;28;20043;-83
2022/12/15 09:13:27;;;;;;;0.22;0.22;;;0.60;99.90;;;;;;5079485;28;20079;-82
2022/12/15 09:15:56;;;;;;;0.00;0.00;;;0.30;99.90;;;;;;5096947;28;20390;-83
2022/12/15 09:18:22;;;;;;;0.40;0.40;;;0.30;99.90;;;;;;5077514;28;20487;-82
2022/12/15 09:20:48;;;;;;;0.43;0.43;;;0.30;99.90;;;;;;5079843;28;20107;-83
2022/12/15 09:23:13;;;;;;;0.00;0.00;;;0.60;99.90;;;;;;5043720;28;20127;-82
2022/12/15 09:25:39;;;;;;;0.00;0.00;;;1.30;99.90;;;;;;5074157;28;20039;-82
2022/12/15 09:28:05;;;;;;;0.35;0.35;;;2.20;99.90;;;;;;5064370;28;20134;-82
2022/12/15 09:30:30;;;;;;;1.45;0.75;;;2.90;99.90;;;;;;5064457;28;20052;-83
2022/12/15 09:32:56;;;;;;;0.17;0.17;;;3.50;99.90;;;;;;5063431;28;20085;-82
2022/12/15 09:35:22;;;;;;;0.00;0.00;;;4.00;99.90;;;;;;5100738;28;20036;-82
2022/12/15 09:37:48;;;;;;;0.17;0.13;;;4.40;99.90;;;;;;5058248;28;20048;-83
2022/12/15 09:40:14;;;;;;;0.15;0.08;;;4.70;99.90;;;;;;5093704;28;20051;-82
2022/12/15 09:42:39;;;;;;;0.95;0.85;;;4.90;99.90;;;;;;5053731;28;20044;-82
2022/12/15 09:45:18;;;;;;;0.10;0.10;;;5.20;99.90;;;;;;5066424;28;20105;-83
2022/12/15 09:47:52;;;;;;;0.90;0.75;;;5.40;99.90;;;;;;5092516;28;20557;-83
2022/12/15 09:50:24;;;;;;;0.10;0.10;;;5.50;99.90;;;;;;5074099;28;20063;-83
2022/12/15 09:52:59;;;;;;;0.10;0.10;;;5.50;99.90;;;;;;5093491;28;20126;-82
2022/12/15 09:55:31;;;;;;;0.20;0.20;;;5.60;99.90;;;;;;5076802;28;20048;-82
2022/12/15 09:58:05;;;;;;;0.22;0.05;;;5.50;99.90;;;;;;5093712;28;20488;-83
2022/12/15 10:00:47;;;;;;;4.88;1.38;;;4.90;99.90;;;;;;5076621;28;20134;-83
2022/12/15 10:03:33;;;;;;;0.10;0.10;;;4.70;99.90;;;;;;5093791;28;20130;-82
2022/12/15 10:06:07;;;;;;;0.43;0.43;;;4.80;99.90;;;;;;5077087;28;20043;-82
2022/12/15 10:08:48;;;;;;;1.60;0.90;;;4.60;99.90;;;;;;5076548;28;20051;-84
2022/12/15 10:11:54;;;;;;;4.28;0.57;;;4.00;99.90;;;;;;5097240;28;20047;-85
2022/12/15 10:14:36;;;;;;;0.03;0.03;;;3.30;99.90;;;;;;5061221;28;20040;-85
2022/12/15 10:17:27;;;;;;;0.70;0.70;;;2.70;99.90;;;;;;5093685;28;20454;-85
2022/12/15 10:20:26;;;;;;;2.67;0.43;;;2.20;99.90;;;;;;5074883;28;20073;-84
2022/12/15 10:22:54;;;;;;;0.60;0.60;;;2.20;99.90;;;;;;5040914;28;20523;-85
2022/12/15 10:25:23;;;;;;;0.00;0.00;;;1.60;99.90;;;;;;5091610;28;20051;-85
2022/12/15 10:28:07;;;;;;;0.65;0.65;;;1.60;99.90;;;;;;5057218;28;20065;-85
2022/12/15 10:30:34;;;;;;;1.65;0.35;;;1.30;99.90;;;;;;5093419;28;20036;-85
2022/12/15 10:33:12;;;;;;;0.93;0.30;;;1.10;99.90;;;;;;5076241;28;20138;-84
2022/12/15 10:35:42;;;;;;;0.32;0.32;;;1.00;99.90;;;;;;5072486;28;20050;-85
2022/12/15 10:38:36;;;;;;;0.65;0.65;;;0.90;99.90;;;;;;5060758;28;20059;-86
2022/12/15 10:41:11;;;;;;;0.30;0.30;;;0.90;99.90;;;;;;5077671;28;20147;-84
2022/12/15 10:43:44;;;;;;;0.10;0.05;;;0.70;99.90;;;;;;5076995;28;20056;-84
2022/12/15 10:46:17;;;;;;;0.20;0.10;;;0.60;99.90;;;;;;5093890;28;20055;-83
2022/12/15 10:48:51;;;;;;;0.00;0.00;;;0.60;99.90;;;;;;5076454;28;20043;-83
2022/12/15 10:51:20;;;;;;;0.00;0.00;;;0.50;99.90;;;;;;5094063;28;20048;-83
2022/12/15 10:53:52;;;;;;;0.65;0.38;;;0.50;99.90;;;;;;5093864;28;20105;-84
2022/12/15 10:56:27;;;;;;;0.35;0.35;;;0.50;99.90;;;;;;5093590;28;20051;-84
2022/12/15 10:58:58;;;;;;;0.40;0.40;;;0.40;99.90;;;;;;5093689;28;20048;-84
2022/12/15 11:01:27;;;;;;;1.10;0.52;;;0.40;99.90;;;;;;5092734;28;20090;-83
2022/12/15 11:03:53;;;;;;;2.72;0.68;;;0.50;99.90;;;;;;5096134;28;20168;-83
2022/12/15 11:06:31;;;;;;;0.25;0.25;;;0.50;99.90;;;;;;5075227;28;20044;-83
2022/12/15 11:09:08;;;;;;;0.70;0.70;;;0.50;99.90;;;;;;5072070;28;20048;-83
2022/12/15 11:14:44;;;;;;;10.13;0.52;;;1.00;99.90;;;;;;5093316;28;20052;-83
2022/12/15 11:17:18;;;;;;;0.70;0.70;;;1.50;99.90;;;;;;5077083;28;20079;-82
2022/12/15 11:19:50;;;;;;;3.50;0.70;;;1.90;99.90;;;;;;5072897;28;20071;-83
2022/12/15 11:22:45;;;;;;;0.13;0.00;;;2.20;99.90;;;;;;5073457;28;20040;-83
2022/12/15 11:25:35;;;;;;;0.10;0.10;;;2.20;99.90;;;;;;5061337;28;20047;-84
2022/12/15 11:28:08;;;;;;;0.00;0.00;;;2.50;99.90;;;;;;5093133;28;20099;-84
2022/12/15 11:30:41;;;;;;;0.10;0.10;;;2.40;99.90;;;;;;5093686;28;20131;-84
2022/12/15 11:33:09;;;;;;;0.65;0.38;;;3.00;99.90;;;;;;5093619;28;20127;-84
2022/12/15 11:36:08;;;;;;;0.60;0.55;;;3.90;99.90;;;;;;5076785;28;20498;-85
2022/12/15 11:38:46;;;;;;;0.13;0.13;;;5.00;99.90;;;;;;5083453;28;20048;-85
2022/12/15 11:41:52;;;;;;;0.05;0.05;;;5.30;99.90;;;;;;5094233;28;20040;-85
2022/12/15 11:44:36;;;;;;;1.67;0.25;;;5.00;99.90;;;;;;5095078;28;20054;-85
2022/12/15 11:47:32;;;;;;;1.00;0.75;;;4.60;99.90;;;;;;5101472;28;20047;-85
2022/12/15 11:50:10;;;;;;;0.30;0.30;;;4.80;99.90;;;;;;5080470;28;20044;-84
2022/12/15 11:52:54;;;;;;;1.92;0.75;;;4.80;99.90;;;;;;5099753;28;20047;-85
2022/12/15 11:55:27;;;;;;;0.28;0.28;;;4.70;99.90;;;;;;5081846;28;20051;-85
2022/12/15 11:58:30;;;;;;;0.32;0.32;;;5.20;99.90;;;;;;5078457;28;20036;-85
2022/12/15 12:01:24;;;;;;;0.45;0.25;;;5.80;99.90;;;;;;5057115;28;20419;-85
2022/12/15 12:03:59;;;;;;;0.73;0.27;;;6.20;99.90;;;;;;5072618;28;20066;-84
2022/12/15 12:06:31;;;;;;;0.35;0.22;;;5.70;99.90;;;;;;5089289;28;20286;-84
2022/12/15 12:09:22;;;;;;;0.30;0.30;;;5.00;99.90;;;;;;5075915;28;20052;-84
2022/12/15 12:12:06;;;;;;;0.43;0.43;;;4.50;99.90;;;;;;5076279;28;20094;-84
2022/12/15 12:14:46;;;;;;;0.93;0.47;;;4.80;99.90;;;;;;5093346;28;20068;-83
2022/12/15 12:17:45;;;;;;;0.75;0.75;;;5.20;99.90;;;;;;5094205;28;20104;-83
2022/12/15 12:20:37;;;;;;;0.20;0.20;;;5.40;99.90;;;;;;5079494;28;20051;-83
2022/12/15 12:23:18;;;;;;;0.08;0.08;;;5.20;99.90;;;;;;5079894;28;20055;-83
2022/12/15 12:26:10;;;;;;;0.20;0.20;;;4.60;99.90;;;;;;5096625;28;20052;-83
2022/12/15 12:28:51;;;;;;;0.52;0.22;;;3.90;99.90;;;;;;5079908;28;20055;-83
2022/12/15 12:31:50;;;;;;;0.10;0.10;;;3.50;99.90;;;;;;5096785;28;20507;-83
2022/12/15 12:34:55;;;;;;;1.00;0.65;;;3.10;99.90;;;;;;5097015;28;20141;-86
2022/12/15 12:37:26;;;;;;;0.10;0.10;;;2.80;99.90;;;;;;5097172;28;20361;-81
2022/12/15 12:39:55;;;;;;;0.35;0.35;;;2.60;99.90;;;;;;5096669;28;20048;-81
2022/12/15 12:42:30;;;;;;;0.13;0.13;;;2.70;99.90;;;;;;5095644;28;20484;-83
2022/12/15 12:44:55;;;;;;;;;;;3.00;99.90;;;;;;5079224;28;20079;-83
2022/12/15 12:47:28;;;;;;;0.10;0.10;;;3.40;99.90;;;;;;5079254;28;19963;-83
2022/12/15 12:50:05;;;;;;;0.20;0.20;;;3.40;99.90;;;;;;5079258;28;20051;-83
2022/12/15 12:52:34;;;;;;;0.32;0.00;;;3.50;99.90;;;;;;5096375;28;20048;-83
2022/12/15 12:55:12;;;;;;;0.35;0.35;;;3.50;99.90;;;;;;5079480;28;20438;-83
2022/12/15 12:57:40;;;;;;;0.10;0.10;;;3.30;99.90;;;;;;5096285;28;20063;-82
2022/12/15 13:00:06;;;;;;;0.30;0.20;;;3.10;99.90;;;;;;5095921;28;20546;-83
2022/12/15 13:02:36;;;;;;;0.00;0.00;;;3.00;99.90;;;;;;5079584;28;20044;-83
2022/12/15 13:05:21;;;;;;;0.65;0.50;;;3.00;99.90;;;;;;5079155;28;20046;-83
2022/12/15 13:07:56;;;;;;;1.08;0.32;;;3.00;99.90;;;;;;5096186;28;20040;-84
2022/12/15 13:10:24;;;;;;;0.30;0.20;;;3.00;99.90;;;;;;5079201;28;20063;-84
2022/12/15 13:12:54;;;;;;;0.20;0.20;;;3.00;99.90;;;;;;5095869;28;20565;-84
2022/12/15 13:15:26;;;;;;;0.90;0.88;;;3.00;99.90;;;;;;5079196;28;20044;-84
2022/12/15 13:17:59;;;;;;;0.73;0.10;;;3.00;99.90;;;;;;5096115;28;20113;-84
2022/12/15 13:20:28;;;;;;;0.73;0.38;;;3.00;99.90;;;;;;5095389;28;20503;-84
2022/12/15 13:22:55;;;;;;;0.70;0.70;;;3.00;99.90;;;;;;5096841;28;20377;-84
2022/12/15 13:25:43;;;;;;;0.10;0.10;;;2.90;99.90;;;;;;5078745;28;20138;-85
2022/12/15 13:28:22;;;;;;;0.08;0.08;;;2.80;99.90;;;;;;5061893;28;20114;-83
2022/12/15 13:31:16;;;;;;;0.73;0.30;;;2.80;99.90;;;;;;5093820;28;20052;-88
2022/12/15 13:33:54;;;;;;;0.45;0.20;;;2.70;99.90;;;;;;5093542;28;20453;-84
2022/12/15 13:36:38;;;;;;;1.25;1.15;;;2.80;99.90;;;;;;5091365;28;20054;-84
2022/12/15 13:39:13;;;;;;;0.55;0.55;;;2.70;99.90;;;;;;5058184;28;20055;-83
2022/12/15 13:41:46;;;;;;;0.30;0.30;;;2.70;99.90;;;;;;5067383;28;20056;-84
2022/12/15 13:44:43;;;;;;;3.00;0.15;;;2.60;99.90;;;;;;5095294;28;20040;-84
2022/12/15 13:47:21;;;;;;;0.40;0.40;;;2.50;99.90;;;;;;5076617;28;20083;-83
2022/12/15 13:50:10;;;;;;;0.85;0.32;;;2.50;99.90;;;;;;5094706;28;20066;-84
2022/12/15 13:52:50;;;;;;;1.65;0.57;;;2.40;99.90;;;;;;5078924;28;20427;-83
2022/12/15 13:55:22;;;;;;;0.32;0.32;;;2.30;99.90;;;;;;5058532;28;20040;-83
2022/12/15 13:58:15;;;;;;;0.20;0.20;;;2.30;99.90;;;;;;5058176;28;20517;-83
2022/12/15 14:00:51;;;;;;;0.00;0.00;;;2.20;99.90;;;;;;5074706;28;20048;-83
2022/12/15 14:03:17;;;;;;;0.20;0.20;;;2.10;99.90;;;;;;5075200;28;20365;-83
2022/12/15 14:05:57;;;;;;;0.65;0.65;;;2.10;99.90;;;;;;5041215;28;20135;-84
2022/12/15 14:08:27;;;;;;;0.28;0.15;;;2.00;99.90;;;;;;5057941;28;20135;-82
2022/12/15 14:10:57;;;;;;;1.33;1.23;;;2.00;99.90;;;;;;5057819;28;20455;-82
2022/12/15 14:13:33;;;;;;;0.32;0.22;;;1.90;99.90;;;;;;5057938;28;20045;-83
2022/12/15 14:16:16;;;;;;;0.55;0.20;;;1.90;99.90;;;;;;5074683;28;20073;-83
2022/12/15 14:18:42;;;;;;;1.23;0.98;;;1.90;99.90;;;;;;5074096;28;20049;-80
2022/12/15 14:21:20;;;;;;;0.57;0.55;;;1.80;99.90;;;;;;5057367;28;20052;-80
2022/12/15 14:23:46;;;;;;;2.28;0.52;;;1.80;99.90;;;;;;5074240;28;20496;-80
2022/12/15 14:26:14;;;;;;;0.45;0.38;;;1.70;99.90;;;;;;5074642;28;20053;-80
2022/12/15 14:28:43;;;;;;;0.95;0.95;;;1.70;99.90;;;;;;5060689;28;20044;-80
2022/12/15 14:31:23;;;;;;;1.30;1.02;;;1.70;99.90;;;;;;5092845;28;20039;-81
2022/12/15 14:33:59;;;;;;;0.30;0.30;;;1.60;99.90;;;;;;5096692;28;20096;-81
2022/12/15 14:36:26;;;;;;;0.47;0.47;;;1.60;99.90;;;;;;5078853;28;20062;-81
2022/12/15 14:38:56;;;;;;;0.30;0.30;;;1.60;99.90;;;;;;5079425;28;20084;-81
2022/12/15 14:41:29;;;;;;;1.55;1.45;;;1.60;99.90;;;;;;5095812;28;20584;-82
2022/12/15 14:44:05;;;;;;;1.15;0.45;;;1.60;99.90;;;;;;5080223;28;20047;-82
2022/12/15 14:46:31;;;;;;;0.70;0.43;;;1.50;99.90;;;;;;5079797;28;20039;-81
2022/12/15 14:49:04;;;;;;;0.22;0.20;;;1.60;99.90;;;;;;5080479;28;20463;-82
2022/12/15 14:51:44;;;;;;;2.92;0.85;;;1.50;99.90;;;;;;5094640;28;20079;-81
2022/12/15 14:54:30;;;;;;;1.15;0.60;;;1.50;99.90;;;;;;5080598;28;20044;-81
2022/12/15 14:57:21;;;;;;;0.30;0.30;;;1.40;99.90;;;;;;5079572;28;20054;-81
2022/12/15 14:59:47;;;;;;;0.28;0.13;;;1.40;99.90;;;;;;5080858;28;20058;-81
2022/12/15 15:02:28;;;;;;;0.45;0.45;;;1.30;99.90;;;;;;5080131;28;20418;-81
2022/12/15 15:05:06;;;;;;;0.40;0.40;;;1.40;99.90;;;;;;5080058;28;20080;-81
2022/12/15 15:07:33;;;;;;;0.60;0.60;;;1.30;99.90;;;;;;5097483;28;20055;-81
2022/12/15 15:10:02;;;;;;;25.40;0.80;;;1.30;99.90;;;;;;5079958;28;20048;-81
2022/12/15 15:12:54;;;;;;;1.50;0.50;;;1.30;99.90;;;;;;5096579;28;20091;-81
2022/12/15 15:15:24;;;;;;;0.77;0.20;;;1.20;99.90;;;;;;5060414;28;20490;-82
2022/12/15 15:17:58;;;;;;;2.33;0.28;;;1.20;99.90;;;;;;5080996;28;20055;-82
2022/12/15 15:20:31;;;;;;;0.30;0.30;;;1.20;99.90;;;;;;5096434;28;20047;-81
2022/12/15 15:23:11;;;;;;;0.68;0.68;;;1.20;99.90;;;;;;5063261;28;20054;-81
2022/12/15 15:25:52;;;;;;;1.60;1.50;;;1.10;99.90;;;;;;5079368;28;20047;-82
2022/12/15 15:28:18;;;;;;;0.40;0.40;;;1.10;99.90;;;;;;5080299;28;20063;-82
2022/12/15 15:30:56;;;;;;;1.25;0.15;;;1.10;99.90;;;;;;5096907;28;20400;-82
2022/12/15 15:33:22;;;;;;;0.57;0.55;;;1.00;99.90;;;;;;5096976;28;20069;-81
2022/12/15 15:35:55;;;;;;;0.20;0.20;;;0.90;99.90;;;;;;5075566;28;20051;-81
2022/12/15 15:38:37;;;;;;;0.40;0.40;;;0.90;99.90;;;;;;5058987;28;20059;-83
2022/12/15 15:41:19;;;;;;;0.73;0.73;;;0.90;99.90;;;;;;5076056;28;20036;-81
2022/12/15 15:43:46;;;;;;;2.72;1.27;;;0.80;99.90;;;;;;5076183;28;20048;-82
2022/12/15 15:46:21;;;;;;;7.75;2.55;;;0.80;99.90;;;;;;5075957;28;20075;-82
2022/12/15 15:48:52;;;;;;;1.70;0.93;;;0.90;99.90;;;;;;5058149;28;20052;-83
2022/12/15 15:51:18;;;;;;;0.00;0.00;;;0.70;99.90;;;;;;5059366;28;20055;-82